sensor_id;sensor_type;location;lat;lon;timestamp;pressure;altitude;pressure_sealevel;temperature;humidity
40850;BME280;26571;41.610;25.380;2022-11-21T00:03:39;97308.50;;;15.52;100.00
40850;BME280;26571;41.610;25.380;2022-11-21T00:06:04;97297.88;;;15.52;100.00
40850;BME280;26571;41.610;25.380;2022-11-21T00:08:29;97250.88;;;15.29;100.00
40850;BME280;26571;41.610;25.380;2022-11-21T00:10:58;97281.59;;;15.48;100.00
40850;BME280;26571;41.610;25.380;2022-11-21T00:13:23;97281.59;;;15.48;100.00
40850;BME280;26571;41.610;25.380;2022-11-21T00:15:49;97297.75;;;15.47;100.00
40850;BME280;26571;41.610;25.380;2022-11-21T00:18:14;97297.88;;;15.52;100.00
40850;BME280;26571;41.610;25.380;2022-11-21T00:20:40;97290.75;;;15.52;100.00
40850;BME280;26571;41.610;25.380;2022-11-21T00:23:06;97263.16;;;15.42;100.00
40850;BME280;26571;41.610;25.380;2022-11-21T00:25:31;97278.19;;;15.60;100.00
40850;BME280;26571;41.610;25.380;2022-11-21T00:27:57;97253.06;;;15.62;100.00
40850;BME280;26571;41.610;25.380;2022-11-21T00:30:22;97235.88;;;15.65;100.00
40850;BME280;26571;41.610;25.380;2022-11-21T00:32:47;97250.75;;;15.66;100.00
40850;BME280;26571;41.610;25.380;2022-11-21T00:35:13;97240.47;;;15.58;100.00
40850;BME280;26571;41.610;25.380;2022-11-21T00:37:38;97244.56;;;15.72;100.00
40850;BME280;26571;41.610;25.380;2022-11-21T00:40:04;97204.69;;;15.60;100.00
40850;BME280;26571;41.610;25.380;2022-11-21T00:42:30;97235.56;;;15.73;100.00
40850;BME280;26571;41.610;25.380;2022-11-21T00:44:55;97220.22;;;15.75;100.00
40850;BME280;26571;41.610;25.380;2022-11-21T00:47:20;97225.53;;;15.75;100.00
40850;BME280;26571;41.610;25.380;2022-11-21T00:49:46;97218.16;;;15.77;100.00
40850;BME280;26571;41.610;25.380;2022-11-21T00:52:12;97184.44;;;15.66;100.00
40850;BME280;26571;41.610;25.380;2022-11-21T00:54:38;97196.13;;;15.88;100.00
40850;BME280;26571;41.610;25.380;2022-11-21T00:57:03;97201.78;;;15.92;100.00
40850;BME280;26571;41.610;25.380;2022-11-21T00:59:29;97191.97;;;15.92;100.00
40850;BME280;26571;41.610;25.380;2022-11-21T01:01:54;97181.47;;;15.97;100.00
40850;BME280;26571;41.610;25.380;2022-11-21T01:04:19;97172.56;;;16.03;100.00
40850;BME280;26571;41.610;25.380;2022-11-21T01:06:45;97171.06;;;16.08;99.06
40850;BME280;26571;41.610;25.380;2022-11-21T01:09:10;97176.50;;;16.13;96.69
40850;BME280;26571;41.610;25.380;2022-11-21T01:11:36;97168.66;;;16.18;96.24
40850;BME280;26571;41.610;25.380;2022-11-21T01:14:02;97160.53;;;16.24;95.43
40850;BME280;26571;41.610;25.380;2022-11-21T01:16:28;97115.44;;;16.01;95.05
40850;BME280;26571;41.610;25.380;2022-11-21T01:18:55;97163.09;;;16.31;94.06
40850;BME280;26571;41.610;25.380;2022-11-21T01:21:26;97164.81;;;16.37;93.97
40850;BME280;26571;41.610;25.380;2022-11-21T01:23:52;97170.69;;;16.39;94.91
40850;BME280;26571;41.610;25.380;2022-11-21T01:26:21;97147.38;;;16.41;94.96
40850;BME280;26571;41.610;25.380;2022-11-21T01:28:47;97159.00;;;16.40;94.82
40850;BME280;26571;41.610;25.380;2022-11-21T01:31:31;97158.09;;;16.46;94.89
40850;BME280;26571;41.610;25.380;2022-11-21T01:33:58;97144.31;;;16.49;94.22
40850;BME280;26571;41.610;25.380;2022-11-21T01:38:52;97164.97;;;16.59;93.84
40850;BME280;26571;41.610;25.380;2022-11-21T01:41:29;97165.31;;;16.63;93.20
40850;BME280;26571;41.610;25.380;2022-11-21T01:43:59;97160.81;;;16.63;93.15
40850;BME280;26571;41.610;25.380;2022-11-21T01:46:25;97176.75;;;16.63;92.79
40850;BME280;26571;41.610;25.380;2022-11-21T01:48:59;97120.06;;;16.58;91.93
40850;BME280;26571;41.610;25.380;2022-11-21T01:51:33;97134.69;;;16.72;90.44
40850;BME280;26571;41.610;25.380;2022-11-21T01:54:05;97119.66;;;16.77;90.32
40850;BME280;26571;41.610;25.380;2022-11-21T01:56:40;97120.00;;;16.81;90.94
40850;BME280;26571;41.610;25.380;2022-11-21T01:59:08;97116.75;;;16.79;91.00
40850;BME280;26571;41.610;25.380;2022-11-21T02:01:36;97117.56;;;16.79;90.90
40850;BME280;26571;41.610;25.380;2022-11-21T02:04:04;97120.00;;;16.81;90.51
40850;BME280;26571;41.610;25.380;2022-11-21T02:06:31;97128.06;;;16.86;90.86
40850;BME280;26571;41.610;25.380;2022-11-21T02:08:58;97104.22;;;16.91;89.92
40850;BME280;26571;41.610;25.380;2022-11-21T02:11:38;97125.00;;;16.94;90.79
40850;BME280;26571;41.610;25.380;2022-11-21T02:14:05;97139.91;;;16.95;92.70
40850;BME280;26571;41.610;25.380;2022-11-21T02:16:32;97147.13;;;16.83;94.78
40850;BME280;26571;41.610;25.380;2022-11-21T02:18:58;97118.28;;;16.63;95.76
40850;BME280;26571;41.610;25.380;2022-11-21T02:26:30;97140.69;;;16.27;89.08
40850;BME280;26571;41.610;25.380;2022-11-21T02:28:56;97160.47;;;16.08;93.87
40850;BME280;26571;41.610;25.380;2022-11-21T02:31:22;97166.81;;;16.07;97.91
40850;BME280;26571;41.610;25.380;2022-11-21T02:33:47;97141.06;;;16.07;99.44
40850;BME280;26571;41.610;25.380;2022-11-21T02:38:57;97123.41;;;16.13;100.00
40850;BME280;26571;41.610;25.380;2022-11-21T02:41:23;97104.91;;;16.18;100.00
40850;BME280;26571;41.610;25.380;2022-11-21T02:43:58;97126.81;;;16.25;100.00
40850;BME280;26571;41.610;25.380;2022-11-21T02:46:26;97125.56;;;16.27;100.00
40850;BME280;26571;41.610;25.380;2022-11-21T02:48:54;97124.63;;;16.34;100.00
40850;BME280;26571;41.610;25.380;2022-11-21T02:51:21;97119.31;;;16.34;100.00
40850;BME280;26571;41.610;25.380;2022-11-21T02:53:47;97123.22;;;16.43;100.00
40850;BME280;26571;41.610;25.380;2022-11-21T02:56:12;97121.47;;;16.48;100.00
40850;BME280;26571;41.610;25.380;2022-11-21T02:58:37;97128.72;;;16.53;100.00
40850;BME280;26571;41.610;25.380;2022-11-21T03:01:03;97109.69;;;16.44;100.00
40850;BME280;26571;41.610;25.380;2022-11-21T03:03:28;97113.13;;;16.57;100.00
40850;BME280;26571;41.610;25.380;2022-11-21T03:05:54;96975.22;;;15.58;100.00
40850;BME280;26571;41.610;25.380;2022-11-21T03:08:20;97127.44;;;16.55;100.00
40850;BME280;26571;41.610;25.380;2022-11-21T03:10:45;97112.00;;;16.41;100.00
40850;BME280;26571;41.610;25.380;2022-11-21T03:13:10;97138.22;;;16.49;100.00
40850;BME280;26571;41.610;25.380;2022-11-21T03:15:36;97154.84;;;16.44;100.00
40850;BME280;26571;41.610;25.380;2022-11-21T03:18:02;97146.22;;;16.37;100.00
40850;BME280;26571;41.610;25.380;2022-11-21T03:20:32;97120.81;;;16.41;100.00
40850;BME280;26571;41.610;25.380;2022-11-21T03:22:58;97123.56;;;16.35;100.00
40850;BME280;26571;41.610;25.380;2022-11-21T03:25:24;97128.44;;;16.26;100.00
40850;BME280;26571;41.610;25.380;2022-11-21T03:27:50;97167.03;;;16.17;100.00
40850;BME280;26571;41.610;25.380;2022-11-21T03:30:16;97156.09;;;16.01;100.00
40850;BME280;26571;41.610;25.380;2022-11-21T03:32:42;97149.03;;;15.84;100.00
40850;BME280;26571;41.610;25.380;2022-11-21T03:35:07;97161.38;;;15.78;100.00
40850;BME280;26571;41.610;25.380;2022-11-21T03:37:33;97170.59;;;15.75;100.00
40850;BME280;26571;41.610;25.380;2022-11-21T03:39:58;97128.72;;;15.66;100.00
40850;BME280;26571;41.610;25.380;2022-11-21T03:42:24;97114.63;;;15.54;100.00
40850;BME280;26571;41.610;25.380;2022-11-21T03:44:49;97106.22;;;15.45;100.00
40850;BME280;26571;41.610;25.380;2022-11-21T03:47:14;97100.53;;;15.41;100.00
40850;BME280;26571;41.610;25.380;2022-11-21T03:49:40;97086.16;;;15.37;100.00
40850;BME280;26571;41.610;25.380;2022-11-21T03:52:05;97096.16;;;15.23;100.00
40850;BME280;26571;41.610;25.380;2022-11-21T03:54:30;97090.63;;;15.13;100.00
40850;BME280;26571;41.610;25.380;2022-11-21T03:56:56;97089.69;;;15.08;100.00
40850;BME280;26571;41.610;25.380;2022-11-21T03:59:21;97082.41;;;15.03;100.00
40850;BME280;26571;41.610;25.380;2022-11-21T04:01:47;97077.78;;;14.98;100.00
40850;BME280;26571;41.610;25.380;2022-11-21T04:04:12;97074.41;;;14.91;100.00
40850;BME280;26571;41.610;25.380;2022-11-21T04:06:37;97075.81;;;14.82;100.00
40850;BME280;26571;41.610;25.380;2022-11-21T04:09:03;97081.19;;;14.76;100.00
40850;BME280;26571;41.610;25.380;2022-11-21T04:11:28;97076.94;;;14.74;100.00
40850;BME280;26571;41.610;25.380;2022-11-21T04:13:54;97080.38;;;14.75;100.00
40850;BME280;26571;41.610;25.380;2022-11-21T04:16:19;97092.25;;;14.72;100.00
40850;BME280;26571;41.610;25.380;2022-11-21T04:18:45;97071.47;;;14.58;100.00
40850;BME280;26571;41.610;25.380;2022-11-21T04:21:10;97085.53;;;14.70;100.00
40850;BME280;26571;41.610;25.380;2022-11-21T04:23:36;97089.59;;;14.72;100.00
40850;BME280;26571;41.610;25.380;2022-11-21T04:26:01;97090.97;;;14.75;100.00
40850;BME280;26571;41.610;25.380;2022-11-21T04:28:27;97092.59;;;14.76;100.00
40850;BME280;26571;41.610;25.380;2022-11-21T04:30:52;97086.84;;;14.79;100.00
40850;BME280;26571;41.610;25.380;2022-11-21T04:33:18;97094.91;;;14.84;100.00
40850;BME280;26571;41.610;25.380;2022-11-21T04:35:44;97098.50;;;14.90;100.00
40850;BME280;26571;41.610;25.380;2022-11-21T04:38:11;97105.78;;;14.94;100.00
40850;BME280;26571;41.610;25.380;2022-11-21T04:40:37;97098.19;;;14.98;100.00
40850;BME280;26571;41.610;25.380;2022-11-21T04:43:03;97102.69;;;14.97;100.00
40850;BME280;26571;41.610;25.380;2022-11-21T04:45:29;97098.75;;;15.00;100.00
40850;BME280;26571;41.610;25.380;2022-11-21T04:47:54;97094.00;;;14.90;99.75
40850;BME280;26571;41.610;25.380;2022-11-21T04:50:20;97100.72;;;15.05;98.27
40850;BME280;26571;41.610;25.380;2022-11-21T04:52:51;97106.16;;;15.10;96.89
40850;BME280;26571;41.610;25.380;2022-11-21T04:55:17;97099.38;;;15.14;94.40
40850;BME280;26571;41.610;25.380;2022-11-21T04:57:42;97109.53;;;15.17;93.31
40850;BME280;26571;41.610;25.380;2022-11-21T05:00:08;97100.06;;;15.21;92.30
40850;BME280;26571;41.610;25.380;2022-11-21T05:02:34;97094.56;;;15.22;91.09
40850;BME280;26571;41.610;25.380;2022-11-21T05:04:59;97093.50;;;15.23;90.54
40850;BME280;26571;41.610;25.380;2022-11-21T05:07:25;97088.31;;;15.17;91.87
40850;BME280;26571;41.610;25.380;2022-11-21T05:09:50;97089.81;;;15.13;92.22
40850;BME280;26571;41.610;25.380;2022-11-21T05:12:15;97086.22;;;15.07;92.28
40850;BME280;26571;41.610;25.380;2022-11-21T05:15:00;97091.16;;;15.04;92.50
40850;BME280;26571;41.610;25.380;2022-11-21T05:17:27;97094.25;;;15.00;92.62
40850;BME280;26571;41.610;25.380;2022-11-21T05:19:53;97082.59;;;14.90;91.85
40850;BME280;26571;41.610;25.380;2022-11-21T05:22:18;97104.06;;;15.00;92.01
40850;BME280;26571;41.610;25.380;2022-11-21T05:24:44;97097.97;;;14.99;90.83
40850;BME280;26571;41.610;25.380;2022-11-21T05:27:09;97094.88;;;15.03;90.34
40850;BME280;26571;41.610;25.380;2022-11-21T05:29:35;97108.13;;;15.03;90.10
40850;BME280;26571;41.610;25.380;2022-11-21T05:32:00;97115.03;;;15.04;89.80
40850;BME280;26571;41.610;25.380;2022-11-21T05:34:25;97109.28;;;15.07;89.50
40850;BME280;26571;41.610;25.380;2022-11-21T05:36:54;97120.00;;;15.12;88.85
40850;BME280;26571;41.610;25.380;2022-11-21T05:39:23;97122.78;;;15.17;88.48
40850;BME280;26571;41.610;25.380;2022-11-21T05:41:48;97088.75;;;15.02;87.75
40850;BME280;26571;41.610;25.380;2022-11-21T05:44:14;97119.47;;;15.33;87.18
40850;BME280;26571;41.610;25.380;2022-11-21T05:46:39;97117.38;;;15.35;85.95
40850;BME280;26571;41.610;25.380;2022-11-21T05:49:05;97128.47;;;15.32;85.97
40850;BME280;26571;41.610;25.380;2022-11-21T05:51:30;97129.34;;;15.26;86.10
40850;BME280;26571;41.610;25.380;2022-11-21T05:53:56;97133.16;;;15.18;85.11
40850;BME280;26571;41.610;25.380;2022-11-21T05:56:21;97141.47;;;15.22;84.79
40850;BME280;26571;41.610;25.380;2022-11-21T05:58:46;97146.41;;;15.30;83.51
40850;BME280;26571;41.610;25.380;2022-11-21T06:01:13;97156.47;;;15.40;83.40
40850;BME280;26571;41.610;25.380;2022-11-21T06:04:00;97131.84;;;15.86;79.78
40850;BME280;26571;41.610;25.380;2022-11-21T06:06:25;97137.13;;;16.21;78.44
40850;BME280;26571;41.610;25.380;2022-11-21T06:08:51;97141.72;;;16.78;74.97
40850;BME280;26571;41.610;25.380;2022-11-21T06:11:16;97147.03;;;17.40;72.35
40850;BME280;26571;41.610;25.380;2022-11-21T06:13:41;97142.97;;;17.83;70.38
40850;BME280;26571;41.610;25.380;2022-11-21T06:16:17;97156.88;;;18.46;67.36
40850;BME280;26571;41.610;25.380;2022-11-21T06:18:46;97161.19;;;18.96;65.29
40850;BME280;26571;41.610;25.380;2022-11-21T06:21:15;97163.22;;;19.43;63.47
40850;BME280;26571;41.610;25.380;2022-11-21T06:23:40;97138.66;;;19.73;61.54
40850;BME280;26571;41.610;25.380;2022-11-21T06:26:10;97167.91;;;20.42;59.49
40850;BME280;26571;41.610;25.380;2022-11-21T06:28:37;97166.75;;;20.75;58.10
40850;BME280;26571;41.610;25.380;2022-11-21T06:31:10;97152.63;;;20.95;55.67
40850;BME280;26571;41.610;25.380;2022-11-21T06:33:37;97145.94;;;20.92;54.83
40850;BME280;26571;41.610;25.380;2022-11-21T06:36:04;97146.22;;;21.06;54.46
40850;BME280;26571;41.610;25.380;2022-11-21T06:38:31;97145.72;;;21.20;54.41
40850;BME280;26571;41.610;25.380;2022-11-21T06:40:57;97153.47;;;21.21;53.23
40850;BME280;26571;41.610;25.380;2022-11-21T06:43:22;97153.19;;;21.17;53.11
40850;BME280;26571;41.610;25.380;2022-11-21T06:45:48;97129.88;;;21.03;52.44
40850;BME280;26571;41.610;25.380;2022-11-21T06:48:13;97168.78;;;21.36;51.19
40850;BME280;26571;41.610;25.380;2022-11-21T06:50:38;97173.06;;;21.52;51.08
40850;BME280;26571;41.610;25.380;2022-11-21T06:53:04;97159.94;;;21.40;50.62
40850;BME280;26571;41.610;25.380;2022-11-21T06:55:30;97145.97;;;21.23;50.72
40850;BME280;26571;41.610;25.380;2022-11-21T06:57:59;97138.69;;;20.88;51.81
40850;BME280;26571;41.610;25.380;2022-11-21T07:00:27;97133.31;;;20.83;53.08
40850;BME280;26571;41.610;25.380;2022-11-21T07:02:54;97139.22;;;20.85;52.24
40850;BME280;26571;41.610;25.380;2022-11-21T07:05:19;97142.06;;;20.53;52.95
40850;BME280;26571;41.610;25.380;2022-11-21T07:07:45;97122.00;;;20.50;53.21
40850;BME280;26571;41.610;25.380;2022-11-21T07:10:10;97119.41;;;20.76;52.59
40850;BME280;26571;41.610;25.380;2022-11-21T07:12:36;97107.50;;;20.41;53.36
40850;BME280;26571;41.610;25.380;2022-11-21T07:15:20;97121.00;;;20.72;53.27
40850;BME280;26571;41.610;25.380;2022-11-21T07:17:45;97125.28;;;20.78;51.63
40850;BME280;26571;41.610;25.380;2022-11-21T07:20:11;97125.06;;;20.89;52.06
40850;BME280;26571;41.610;25.380;2022-11-21T07:22:37;97108.22;;;20.89;51.34
40850;BME280;26571;41.610;25.380;2022-11-21T07:25:03;97102.28;;;20.72;51.23
40850;BME280;26571;41.610;25.380;2022-11-21T07:27:29;97079.31;;;20.81;51.77
40850;BME280;26571;41.610;25.380;2022-11-21T07:29:54;97099.59;;;20.61;51.99
40850;BME280;26571;41.610;25.380;2022-11-21T07:32:23;97101.94;;;20.48;51.86
40850;BME280;26571;41.610;25.380;2022-11-21T07:34:49;97087.44;;;20.38;52.49
40850;BME280;26571;41.610;25.380;2022-11-21T07:37:14;97089.13;;;20.50;53.10
40850;BME280;26571;41.610;25.380;2022-11-21T07:39:40;97097.50;;;20.79;52.53
40850;BME280;26571;41.610;25.380;2022-11-21T07:42:05;97102.78;;;20.58;52.06
40850;BME280;26571;41.610;25.380;2022-11-21T07:44:30;97090.75;;;20.61;52.44
40850;BME280;26571;41.610;25.380;2022-11-21T07:46:56;97087.31;;;20.81;52.04
40850;BME280;26571;41.610;25.380;2022-11-21T07:49:21;97088.41;;;20.80;51.21
40850;BME280;26571;41.610;25.380;2022-11-21T07:51:47;97090.47;;;20.57;51.63
40850;BME280;26571;41.610;25.380;2022-11-21T07:54:12;97066.84;;;20.29;52.39
40850;BME280;26571;41.610;25.380;2022-11-21T07:56:37;97085.41;;;20.56;51.98
40850;BME280;26571;41.610;25.380;2022-11-21T07:59:03;97103.84;;;20.62;52.27
40850;BME280;26571;41.610;25.380;2022-11-21T08:01:28;97098.13;;;20.38;52.09
40850;BME280;26571;41.610;25.380;2022-11-21T08:03:54;97098.41;;;20.42;52.09
40850;BME280;26571;41.610;25.380;2022-11-21T08:06:19;97103.03;;;20.52;51.84
40850;BME280;26571;41.610;25.380;2022-11-21T08:08:44;97104.63;;;20.53;51.22
40850;BME280;26571;41.610;25.380;2022-11-21T08:11:10;97100.16;;;20.74;51.56
40850;BME280;26571;41.610;25.380;2022-11-21T08:13:35;97103.13;;;20.98;50.26
40850;BME280;26571;41.610;25.380;2022-11-21T08:16:02;97095.38;;;21.01;50.17
40850;BME280;26571;41.610;25.380;2022-11-21T08:18:28;97099.66;;;21.07;51.02
40850;BME280;26571;41.610;25.380;2022-11-21T08:20:53;97080.41;;;21.05;50.09
40850;BME280;26571;41.610;25.380;2022-11-21T08:23:19;97100.47;;;21.03;50.34
40850;BME280;26571;41.610;25.380;2022-11-21T08:25:44;97108.47;;;20.87;50.43
40850;BME280;26571;41.610;25.380;2022-11-21T08:28:10;97101.22;;;20.73;50.53
40850;BME280;26571;41.610;25.380;2022-11-21T08:30:38;97100.97;;;20.74;50.92
40850;BME280;26571;41.610;25.380;2022-11-21T08:33:04;97115.31;;;20.53;51.03
40850;BME280;26571;41.610;25.380;2022-11-21T08:35:30;97114.38;;;20.22;51.92
40850;BME280;26571;41.610;25.380;2022-11-21T08:38:00;97114.53;;;20.57;52.50
40850;BME280;26571;41.610;25.380;2022-11-21T08:40:27;97120.50;;;20.80;51.71
40850;BME280;26571;41.610;25.380;2022-11-21T08:43:05;97125.03;;;20.79;51.36
40850;BME280;26571;41.610;25.380;2022-11-21T08:45:32;97143.16;;;20.57;52.06
40850;BME280;26571;41.610;25.380;2022-11-21T08:47:58;97159.31;;;20.30;52.70
40850;BME280;26571;41.610;25.380;2022-11-21T08:50:24;97152.94;;;20.36;52.27
40850;BME280;26571;41.610;25.380;2022-11-21T08:52:50;97174.97;;;20.63;52.16
40850;BME280;26571;41.610;25.380;2022-11-21T08:55:16;97164.84;;;20.65;52.57
40850;BME280;26571;41.610;25.380;2022-11-21T08:57:41;97171.88;;;20.97;51.22
40850;BME280;26571;41.610;25.380;2022-11-21T09:00:09;97159.91;;;21.15;50.21
40850;BME280;26571;41.610;25.380;2022-11-21T09:02:36;97161.03;;;21.34;49.76
40850;BME280;26571;41.610;25.380;2022-11-21T09:05:02;97161.84;;;21.40;48.90
40850;BME280;26571;41.610;25.380;2022-11-21T09:07:27;97153.19;;;21.17;48.86
40850;BME280;26571;41.610;25.380;2022-11-21T09:09:53;97184.28;;;21.24;49.09
40850;BME280;26571;41.610;25.380;2022-11-21T09:12:18;97166.06;;;21.15;48.81
40850;BME280;26571;41.610;25.380;2022-11-21T09:14:43;97178.19;;;21.44;48.36
40850;BME280;26571;41.610;25.380;2022-11-21T09:17:27;97188.63;;;21.60;48.25
40850;BME280;26571;41.610;25.380;2022-11-21T09:20:11;97189.97;;;21.73;48.88
40850;BME280;26571;41.610;25.380;2022-11-21T09:22:37;97190.75;;;21.79;47.94
40850;BME280;26571;41.610;25.380;2022-11-21T09:25:02;97193.44;;;21.89;47.13
40850;BME280;26571;41.610;25.380;2022-11-21T09:27:29;97191.28;;;21.76;46.01
40850;BME280;26571;41.610;25.380;2022-11-21T09:29:55;97191.56;;;21.69;45.05
40850;BME280;26571;41.610;25.380;2022-11-21T09:32:21;97176.31;;;21.49;45.20
40850;BME280;26571;41.610;25.380;2022-11-21T09:34:46;97179.22;;;21.48;45.86
40850;BME280;26571;41.610;25.380;2022-11-21T09:37:12;97152.09;;;20.98;46.09
40850;BME280;26571;41.610;25.380;2022-11-21T09:39:37;97167.81;;;20.69;46.30
40850;BME280;26571;41.610;25.380;2022-11-21T09:52:31;97185.56;;;20.43;46.51
40850;BME280;26571;41.610;25.380;2022-11-21T09:55:05;97187.16;;;20.39;46.16
40850;BME280;26571;41.610;25.380;2022-11-21T09:57:31;97072.94;;;19.67;47.06
40850;BME280;26571;41.610;25.380;2022-11-21T10:00:02;97178.56;;;20.32;46.32
40850;BME280;26571;41.610;25.380;2022-11-21T10:02:29;97161.63;;;20.11;46.41
40850;BME280;26571;41.610;25.380;2022-11-21T10:04:54;97163.66;;;20.46;45.72
40850;BME280;26571;41.610;25.380;2022-11-21T10:07:27;97168.25;;;20.51;46.27
40850;BME280;26571;41.610;25.380;2022-11-21T10:10:07;97163.53;;;20.73;45.43
40850;BME280;26571;41.610;25.380;2022-11-21T10:12:44;97164.34;;;20.74;44.93
40850;BME280;26571;41.610;25.380;2022-11-21T10:18:30;97152.09;;;21.03;44.65
40850;BME280;26571;41.610;25.380;2022-11-21T10:29:03;97143.50;;;20.81;43.76
40850;BME280;26571;41.610;25.380;2022-11-21T10:31:36;97161.16;;;20.82;44.57
40850;BME280;26571;41.610;25.380;2022-11-21T10:34:09;97048.94;;;20.29;44.06
40850;BME280;26571;41.610;25.380;2022-11-21T10:36:38;97159.28;;;20.82;44.20
40850;BME280;26571;41.610;25.380;2022-11-21T10:39:13;97157.34;;;20.62;43.68
40850;BME280;26571;41.610;25.380;2022-11-21T10:41:49;97148.09;;;20.33;43.43
40850;BME280;26571;41.610;25.380;2022-11-21T10:44:30;97152.38;;;20.29;44.79
40850;BME280;26571;41.610;25.380;2022-11-21T10:47:22;97144.13;;;20.40;44.25
40850;BME280;26571;41.610;25.380;2022-11-21T10:52:31;97141.41;;;20.30;44.17
40850;BME280;26571;41.610;25.380;2022-11-21T10:57:27;97127.47;;;20.28;43.90
40850;BME280;26571;41.610;25.380;2022-11-21T11:00:19;97143.72;;;20.11;45.15
40850;BME280;26571;41.610;25.380;2022-11-21T11:05:21;97130.59;;;20.05;45.64
40850;BME280;26571;41.610;25.380;2022-11-21T11:10:29;97141.91;;;20.22;45.22
40850;BME280;26571;41.610;25.380;2022-11-21T11:12:55;97126.16;;;20.26;45.22
40850;BME280;26571;41.610;25.380;2022-11-21T11:15:52;97130.44;;;20.27;44.80
40850;BME280;26571;41.610;25.380;2022-11-21T11:18:23;97134.50;;;20.39;45.23
40850;BME280;26571;41.610;25.380;2022-11-21T11:20:49;97135.28;;;20.35;45.04
40850;BME280;26571;41.610;25.380;2022-11-21T11:25:57;97136.84;;;20.26;46.30
40850;BME280;26571;41.610;25.380;2022-11-21T11:28:24;97131.22;;;20.22;46.50
40850;BME280;26571;41.610;25.380;2022-11-21T11:30:50;97142.94;;;20.16;46.59
40850;BME280;26571;41.610;25.380;2022-11-21T11:33:35;97120.03;;;19.83;47.02
40850;BME280;26571;41.610;25.380;2022-11-21T11:36:14;97145.84;;;19.67;48.14
40850;BME280;26571;41.610;25.380;2022-11-21T11:39:15;97140.81;;;19.44;49.36
40850;BME280;26571;41.610;25.380;2022-11-21T11:48:14;97154.31;;;18.78;55.08
40850;BME280;26571;41.610;25.380;2022-11-21T11:50:59;97155.97;;;18.84;54.99
40850;BME280;26571;41.610;25.380;2022-11-21T11:53:36;97160.88;;;18.92;53.49
40850;BME280;26571;41.610;25.380;2022-11-21T11:56:15;97162.16;;;19.11;52.69
40850;BME280;26571;41.610;25.380;2022-11-21T11:58:59;97157.56;;;19.39;47.94
40850;BME280;26571;41.610;25.380;2022-11-21T12:04:21;97153.19;;;19.55;46.12
40850;BME280;26571;41.610;25.380;2022-11-21T12:07:09;97156.00;;;19.70;45.59
40850;BME280;26571;41.610;25.380;2022-11-21T12:09:43;97159.31;;;19.87;42.84
40850;BME280;26571;41.610;25.380;2022-11-21T12:12:32;97156.34;;;19.84;44.23
40850;BME280;26571;41.610;25.380;2022-11-21T12:15:26;97160.38;;;19.86;44.38
40850;BME280;26571;41.610;25.380;2022-11-21T12:18:22;97170.19;;;19.76;44.75
40850;BME280;26571;41.610;25.380;2022-11-21T12:23:31;97156.09;;;19.53;45.32
40850;BME280;26571;41.610;25.380;2022-11-21T12:26:11;97164.41;;;19.57;44.03
40850;BME280;26571;41.610;25.380;2022-11-21T12:31:14;97150.09;;;19.36;44.41
40850;BME280;26571;41.610;25.380;2022-11-21T12:33:57;97146.28;;;19.27;44.76
40850;BME280;26571;41.610;25.380;2022-11-21T12:36:34;97159.34;;;19.28;44.29
40850;BME280;26571;41.610;25.380;2022-11-21T12:41:46;97161.78;;;19.30;46.53
40850;BME280;26571;41.610;25.380;2022-11-21T12:44:57;97171.41;;;19.31;45.30
40850;BME280;26571;41.610;25.380;2022-11-21T12:50:28;97173.44;;;19.24;43.93
40850;BME280;26571;41.610;25.380;2022-11-21T12:53:30;97184.59;;;19.16;44.94
40850;BME280;26571;41.610;25.380;2022-11-21T12:56:29;97175.28;;;18.91;43.47
40850;BME280;26571;41.610;25.380;2022-11-21T12:58:57;97172.56;;;18.86;43.85
40850;BME280;26571;41.610;25.380;2022-11-21T13:04:22;97178.25;;;18.73;44.53
40850;BME280;26571;41.610;25.380;2022-11-21T13:06:50;97185.72;;;18.71;44.71
40850;BME280;26571;41.610;25.380;2022-11-21T13:09:19;97198.69;;;18.89;45.44
40850;BME280;26571;41.610;25.380;2022-11-21T13:12:06;97189.56;;;19.07;43.77
40850;BME280;26571;41.610;25.380;2022-11-21T13:17:15;97185.66;;;19.15;41.78
40850;BME280;26571;41.610;25.380;2022-11-21T13:19:59;97200.56;;;19.10;42.77
40850;BME280;26571;41.610;25.380;2022-11-21T13:25:03;97189.09;;;19.10;42.92
40850;BME280;26571;41.610;25.380;2022-11-21T13:27:39;97195.50;;;19.14;42.40
40850;BME280;26571;41.610;25.380;2022-11-21T13:45:50;97209.28;;;18.62;43.88
40850;BME280;26571;41.610;25.380;2022-11-21T13:50:55;97190.06;;;18.38;44.20
40850;BME280;26571;41.610;25.380;2022-11-21T13:53:30;97195.72;;;18.25;44.67
40850;BME280;26571;41.610;25.380;2022-11-21T13:58:53;97200.69;;;18.16;44.96
40850;BME280;26571;41.610;25.380;2022-11-21T14:01:42;97195.84;;;18.13;45.17
40850;BME280;26571;41.610;25.380;2022-11-21T14:09:48;97197.97;;;17.94;47.52
40850;BME280;26571;41.610;25.380;2022-11-21T14:12:18;97196.75;;;17.85;47.57
40850;BME280;26571;41.610;25.380;2022-11-21T14:23:15;97193.75;;;17.48;48.74
40850;BME280;26571;41.610;25.380;2022-11-21T14:25:45;97189.16;;;17.43;49.87
40850;BME280;26571;41.610;25.380;2022-11-21T14:28:27;97189.88;;;17.39;50.19
40850;BME280;26571;41.610;25.380;2022-11-21T14:31:00;97196.25;;;17.38;49.66
40850;BME280;26571;41.610;25.380;2022-11-21T14:33:28;97191.06;;;17.31;49.38
40850;BME280;26571;41.610;25.380;2022-11-21T14:36:18;97186.38;;;17.21;50.48
40850;BME280;26571;41.610;25.380;2022-11-21T14:38:51;97191.47;;;17.23;50.51
40850;BME280;26571;41.610;25.380;2022-11-21T14:46:27;97192.31;;;17.12;49.71
40850;BME280;26571;41.610;25.380;2022-11-21T14:48:53;97197.47;;;17.01;51.30
40850;BME280;26571;41.610;25.380;2022-11-21T14:51:20;97197.38;;;16.96;50.96
40850;BME280;26571;41.610;25.380;2022-11-21T14:53:48;97203.69;;;16.95;50.89